Time;durP1;ratioP1;P1;durP2;ratioP2;P2;SDS_P1;SDS_P2;PMS_P1;PMS_P2;Temp;Humidity;BMP_temperature;BMP_pressure;BME280_temperature;BME280_humidity;BME280_pressure;Samples;Min_cycle;Max_cycle;Signal;HPM_P1;HPM_P2
2021/10/01 00:01:39;;;;;;;;;;;;;;;8.19;61.61;101907.94;5022515;28;19984;-75
2021/10/01 00:04:05;;;;;;;;;;;;;;;8.19;61.55;101912.25;5026115;28;19933;-75
2021/10/01 00:06:30;;;;;;;;;;;;;;;8.21;61.90;101915.78;5023613;28;20280;-76
2021/10/01 00:08:56;;;;;;;;;;;;;;;8.19;61.83;101917.44;5029046;28;21048;-77
2021/10/01 00:11:21;;;;;;;;;;;;;;;8.18;61.54;101915.69;5031939;28;19928;-76
2021/10/01 00:13:47;;;;;;;;;;;;;;;8.18;61.61;101913.09;5043803;28;19929;-76
2021/10/01 00:16:13;;;;;;;;;;;;;;;8.19;61.44;101914.84;5030600;28;19921;-76
2021/10/01 00:18:38;;;;;;;;;;;;;;;8.17;61.64;101913.91;5033130;28;19921;-76
2021/10/01 00:21:04;;;;;;;;;;;;;;;8.18;61.58;101910.50;5030914;28;19925;-75
2021/10/01 00:23:30;;;;;;;;;;;;;;;8.11;61.66;101915.47;5014918;28;19921;-76
2021/10/01 00:25:56;;;;;;;;;;;;;;;8.06;61.76;101909.22;5041994;28;20396;-76
2021/10/01 00:28:22;;;;;;;;;;;;;;;8.05;61.99;101912.69;5033103;28;19921;-76
2021/10/01 00:30:48;;;;;;;;;;;;;;;8.03;61.84;101916.91;5026131;28;20311;-76
2021/10/01 00:33:13;;;;;;;;;;;;;;;8.03;62.06;101910.84;5028837;28;19926;-76
2021/10/01 00:35:39;;;;;;;;;;;;;;;8.01;61.90;101915.97;5032735;28;19921;-75
2021/10/01 00:38:05;;;;;;;;;;;;;;;8.03;61.96;101914.31;5032061;28;20026;-76
2021/10/01 00:40:30;;;;;;;;;;;;;;;8.06;61.70;101911.81;5042262;28;19920;-76
2021/10/01 00:42:56;;;;;;;;;;;;;;;8.08;62.13;101909.28;5028535;28;19968;-76
2021/10/01 00:45:21;;;;;;;;;;;;;;;8.09;62.10;101913.66;5034400;28;19920;-77
2021/10/01 00:47:47;;;;;;;;;;;;;;;8.08;62.16;101915.34;5048108;28;19925;-76
2021/10/01 00:50:13;;;;;;;;;;;;;;;8.08;61.94;101912.75;5044590;28;19921;-77
2021/10/01 00:52:38;;;;;;;;;;;;;;;8.08;61.95;101910.16;5030392;28;19947;-77
2021/10/01 00:55:04;;;;;;;;;;;;;;;8.07;61.94;101912.72;5030666;28;19926;-76
2021/10/01 00:57:29;;;;;;;;;;;;;;;8.06;61.91;101916.13;5039090;28;19963;-78
2021/10/01 00:59:55;;;;;;;;;;;;;;;8.03;61.95;101911.72;5033871;28;19956;-76
2021/10/01 01:02:21;;;;;;;;;;;;;;;8.03;62.24;101914.31;5028246;28;20000;-75
2021/10/01 01:04:47;;;;;;;;;;;;;;;8.03;61.97;101911.72;5016551;28;19925;-75
2021/10/01 01:07:15;;;;;;;;;;;;;;;8.02;61.96;101911.66;5013638;28;19928;-76
2021/10/01 01:09:41;;;;;;;;;;;;;;;8.00;62.00;101911.63;5013506;28;20023;-75
2021/10/01 01:12:09;;;;;;;;;;;;;;;7.97;61.90;101908.91;5028386;28;20034;-76
2021/10/01 01:14:47;;;;;;;;;;;;;;;7.98;62.33;101914.13;5042430;28;20327;-75
2021/10/01 01:17:16;;;;;;;;;;;;;;;7.99;61.96;101909.84;5032179;28;19921;-75
2021/10/01 01:20:01;;;;;;;;;;;;;;;7.99;62.15;101915.03;5031154;28;20371;-76
2021/10/01 01:22:37;;;;;;;;;;;;;;;7.98;62.23;101911.53;5037550;28;19971;-75
2021/10/01 01:25:15;;;;;;;;;;;;;;;7.99;62.18;101912.44;5033236;28;20020;-76
2021/10/01 01:28:00;;;;;;;;;;;;;;;7.95;62.00;101913.16;5048050;28;19967;-75
2021/10/01 01:30:26;;;;;;;;;;;;;;;7.93;62.08;101907.94;5031921;28;20284;-76
2021/10/01 01:33:01;;;;;;;;;;;;;;;7.95;62.32;101907.97;5043265;28;19983;-75
2021/10/01 01:35:32;;;;;;;;;;;;;;;7.98;62.30;101913.28;5028922;28;19930;-77
2021/10/01 01:38:03;;;;;;;;;;;;;;;7.96;62.08;101904.56;5034412;28;20346;-76
2021/10/01 01:40:31;;;;;;;;;;;;;;;7.99;62.16;101915.91;5035209;28;19924;-75
2021/10/01 01:42:58;;;;;;;;;;;;;;;7.99;62.31;101909.84;4997265;28;19975;-76
2021/10/01 01:45:24;;;;;;;;;;;;;;;7.99;62.10;101910.72;5051206;28;19920;-76
2021/10/01 01:47:51;;;;;;;;;;;;;;;7.97;62.05;101907.19;5058154;28;19913;-76
2021/10/01 01:50:17;;;;;;;;;;;;;;;8.00;62.06;101909.03;5047831;28;19981;-77
2021/10/01 01:52:44;;;;;;;;;;;;;;;8.03;62.36;101910.84;5053523;28;19925;-78
2021/10/01 01:55:11;;;;;;;;;;;;;;;8.01;62.01;101905.59;5036476;28;19926;-76
2021/10/01 07:23:44;;;;;;;;;;;;;;;8.99;60.05;101948.69;4883240;29;20657;-77
2021/10/01 08:20:44;;;;;;;;;;;;;;;10.02;57.57;101949.13;4858077;29;21451;-78
2021/10/01 08:23:13;;;;;;;;;;;;;;;10.03;57.24;101949.16;4869433;29;19971;-77
2021/10/01 08:25:39;;;;;;;;;;;;;;;10.04;57.45;101947.44;4859471;29;19924;-76
2021/10/01 08:28:05;;;;;;;;;;;;;;;10.05;56.93;101949.16;4874421;29;19924;-76
2021/10/01 08:30:51;;;;;;;;;;;;;;;10.03;56.83;101946.53;4887083;29;19972;-77
2021/10/01 08:33:17;;;;;;;;;;;;;;;10.08;57.08;101944.06;4886866;29;19928;-79
2021/10/01 08:35:42;;;;;;;;;;;;;;;10.12;56.74;101943.31;4895192;29;19979;-79
2021/10/01 08:38:08;;;;;;;;;;;;;;;10.17;56.80;101936.50;4885102;29;20022;-77
2021/10/01 08:40:34;;;;;;;;;;;;;;;10.19;56.49;101942.66;4873425;29;19953;-77
2021/10/01 08:42:59;;;;;;;;;;;;;;;10.17;56.47;101946.91;4891310;29;19943;-79
2021/10/01 08:45:26;;;;;;;;;;;;;;;10.19;56.49;101950.44;4875428;29;19958;-77
2021/10/01 08:47:56;;;;;;;;;;;;;;;10.20;56.02;101943.50;4877343;29;20014;-78
2021/10/01 08:50:22;;;;;;;;;;;;;;;10.19;56.35;101946.94;4869832;29;20011;-78
2021/10/01 08:52:49;;;;;;;;;;;;;;;10.27;56.32;101949.75;4875387;29;19975;-78
2021/10/01 08:55:15;;;;;;;;;;;;;;;10.29;55.57;101937.66;4877216;29;19969;-76
2021/10/01 08:57:41;;;;;;;;;;;;;;;10.33;55.95;101944.72;4856841;29;19931;-77
2021/10/01 09:00:15;;;;;;;;;;;;;;;10.42;55.88;101939.81;4879935;29;19924;-77
2021/10/01 09:02:41;;;;;;;;;;;;;;;10.50;55.48;101947.81;4878436;29;20380;-78
2021/10/01 09:05:12;;;;;;;;;;;;;;;10.50;54.99;101953.00;4860616;29;20296;-78
2021/10/01 09:07:38;;;;;;;;;;;;;;;10.48;55.59;101939.94;4861942;29;20308;-77
2021/10/01 09:10:08;;;;;;;;;;;;;;;10.49;55.16;101949.50;4876693;29;19956;-78
2021/10/01 09:12:34;;;;;;;;;;;;;;;10.45;54.78;101944.19;4857274;29;19951;-77
2021/10/01 09:15:03;;;;;;;;;;;;;;;10.38;55.04;101946.63;4879052;29;20974;-77
2021/10/01 09:17:32;;;;;;;;;;;;;;;10.40;55.29;101944.09;4892995;29;19924;-78
2021/10/01 09:19:58;;;;;;;;;;;;;;;10.46;54.93;101946.84;4877055;29;20375;-78
2021/10/01 09:22:35;;;;;;;;;;;;;;;10.47;54.84;101951.22;4893987;29;20058;-77
2021/10/01 09:25:12;;;;;;;;;;;;;;;10.47;54.55;101946.00;4884135;29;19931;-78
2021/10/01 09:27:39;;;;;;;;;;;;;;;10.41;54.39;101951.06;4892072;29;19927;-78
2021/10/01 09:30:08;;;;;;;;;;;;;;;10.47;54.71;101945.13;4881413;29;19923;-77
2021/10/01 09:32:43;;;;;;;;;;;;;;;10.48;54.32;101945.13;4877159;29;19934;-79
2021/10/01 09:35:14;;;;;;;;;;;;;;;10.50;54.49;101946.06;4879191;29;19924;-77
2021/10/01 09:37:40;;;;;;;;;;;;;;;10.60;54.24;101946.31;4883126;29;19955;-78
2021/10/01 09:40:06;;;;;;;;;;;;;;;10.59;53.89;101941.94;4891970;29;20291;-80
2021/10/01 09:42:39;;;;;;;;;;;;;;;10.57;54.56;101943.63;4894496;29;19920;-78
2021/10/01 09:45:05;;;;;;;;;;;;;;;10.60;53.93;101943.72;4880989;29;19928;-78
2021/10/01 09:47:32;;;;;;;;;;;;;;;10.65;54.08;101942.97;4881317;29;19923;-78
2021/10/01 09:50:04;;;;;;;;;;;;;;;10.50;54.21;101940.84;4882905;29;20304;-79
2021/10/01 09:52:50;;;;;;;;;;;;;;;10.47;54.19;101948.63;4883774;29;19946;-79
2021/10/01 09:55:36;;;;;;;;;;;;;;;10.47;53.94;101945.13;4886578;29;19935;-78
2021/10/01 09:58:08;;;;;;;;;;;;;;;10.52;54.21;101953.94;4883381;29;20960;-77
2021/10/01 10:00:43;;;;;;;;;;;;;;;10.61;54.20;101942.88;4884712;29;19927;-79
2021/10/01 10:03:29;;;;;;;;;;;;;;;10.62;53.69;101944.63;4901662;29;19923;-79
2021/10/01 10:05:54;;;;;;;;;;;;;;;10.62;53.75;101937.69;4887191;29;20010;-79
2021/10/01 10:08:39;;;;;;;;;;;;;;;10.62;53.76;101936.81;4891343;29;19971;-78
2021/10/01 10:11:15;;;;;;;;;;;;;;;10.65;53.54;101937.75;4889108;29;19930;-80
2021/10/01 10:13:48;;;;;;;;;;;;;;;10.69;53.25;101933.53;4887638;29;19928;-80
2021/10/01 10:16:14;;;;;;;;;;;;;;;10.76;53.30;101939.78;4887971;29;19928;-78
2021/10/01 10:18:40;;;;;;;;;;;;;;;10.70;53.23;101943.97;4887153;29;19934;-80
2021/10/01 10:21:05;;;;;;;;;;;;;;;10.68;53.45;101945.66;4860388;29;19984;-79
2021/10/01 10:23:31;;;;;;;;;;;;;;;10.66;53.28;101933.47;4898201;29;19923;-79
2021/10/01 10:25:57;;;;;;;;;;;;;;;10.64;53.17;101940.34;4886407;29;19923;-81
2021/10/01 10:28:23;;;;;;;;;;;;;;;10.65;53.03;101940.38;4886086;29;20525;-78
2021/10/01 10:30:49;;;;;;;;;;;;;;;10.65;52.94;101942.97;4892106;29;19924;-80
2021/10/01 10:33:33;;;;;;;;;;;;;;;10.64;53.32;101941.22;4874346;29;19931;-77
2021/10/01 10:35:59;;;;;;;;;;;;;;;10.65;53.55;101942.09;4893442;29;19908;-79
2021/10/01 10:38:32;;;;;;;;;;;;;;;10.52;53.38;101946.13;4895820;29;19943;-80
2021/10/01 10:41:18;;;;;;;;;;;;;;;10.48;53.39;101944.28;4898947;29;19926;-80
2021/10/01 10:44:24;;;;;;;;;;;;;;;;;;;;;
2021/10/01 10:46:57;;;;;;;;;;;;;;;10.60;53.14;101936.75;4882407;29;19931;-79
2021/10/01 10:49:26;;;;;;;;;;;;;;;10.68;52.85;101932.66;4888306;29;19927;-81
2021/10/01 10:52:04;;;;;;;;;;;;;;;10.65;52.84;101936.91;4894232;29;20293;-80
2021/10/01 10:54:43;;;;;;;;;;;;;;;10.57;53.49;101941.03;4896469;29;19928;-81
2021/10/01 10:59:49;;;;;;;;;;;;;;;10.48;53.32;101937.34;4875680;29;20442;-79
2021/10/01 11:02:24;;;;;;;;;;;;;;;10.46;52.87;101945.97;4876266;29;20363;-79
2021/10/01 11:05:08;;;;;;;;;;;;;;;10.49;53.03;101941.69;4891696;29;19923;-82
2021/10/01 11:07:46;;;;;;;;;;;;;;;10.40;53.30;101941.47;4875121;29;19959;-78
2021/10/01 11:10:32;;;;;;;;;;;;;;;10.39;52.91;101943.19;4874885;29;20404;-79
2021/10/01 11:13:17;;;;;;;;;;;;;;;10.29;53.40;101937.66;4889369;29;19935;-79
2021/10/01 11:15:44;;;;;;;;;;;;;;;10.23;53.74;101936.69;4875604;29;20159;-78
2021/10/01 11:18:10;;;;;;;;;;;;;;;10.38;53.60;101937.91;4883671;29;19924;-77
2021/10/01 11:20:36;;;;;;;;;;;;;;;10.43;53.37;101936.34;4886378;29;19992;-78
2021/10/01 11:23:13;;;;;;;;;;;;;;;10.42;53.09;101934.59;4876100;29;20050;-79
2021/10/01 11:25:42;;;;;;;;;;;;;;;10.42;52.73;101932.00;4889013;29;19932;-80
2021/10/01 11:28:24;;;;;;;;;;;;;;;10.38;53.20;101932.72;4872063;29;19966;-79
2021/10/01 11:30:53;;;;;;;;;;;;;;;10.38;53.46;101923.19;4873557;29;19924;-79
2021/10/01 11:36:27;;;;;;;;;;;;;;;10.35;53.44;101948.25;4859155;29;19927;-80
2021/10/01 11:39:10;;;;;;;;;;;;;;;10.31;53.26;101936.00;4876636;29;19946;-79
2021/10/01 11:41:48;;;;;;;;;;;;;;;10.32;53.51;101929.94;4873869;29;20327;-79
2021/10/01 11:44:23;;;;;;;;;;;;;;;10.26;52.92;101933.28;4874390;29;19927;-79
2021/10/01 11:46:50;;;;;;;;;;;;;;;10.18;53.61;101930.47;4877831;29;19931;-80
2021/10/01 11:49:15;;;;;;;;;;;;;;;10.18;53.59;101926.97;4891277;29;19995;-80
2021/10/01 11:51:41;;;;;;;;;;;;;;;10.15;53.67;101921.72;4875688;29;20014;-78
2021/10/01 11:54:07;;;;;;;;;;;;;;;10.12;53.26;101919.91;4871741;29;19963;-79
2021/10/01 11:56:38;;;;;;;;;;;;;;;10.10;53.50;101914.66;4876217;29;20018;-79
2021/10/01 11:59:21;;;;;;;;;;;;;;;10.05;53.34;101913.66;4875914;29;19935;-80
2021/10/01 12:02:00;;;;;;;;;;;;;;;9.93;53.40;101911.59;4859094;29;19950;-81
2021/10/01 12:04:32;;;;;;;;;;;;;;;9.92;53.78;101917.63;4890385;29;20022;-80
2021/10/01 12:07:02;;;;;;;;;;;;;;;9.83;53.28;101909.56;4879832;29;19924;-80
2021/10/01 12:09:28;;;;;;;;;;;;;;;9.79;53.89;101912.94;4878344;29;19973;-77
2021/10/01 12:11:53;;;;;;;;;;;;;;;9.80;53.70;101909.50;4879160;29;19958;-78
2021/10/01 12:14:20;;;;;;;;;;;;;;;9.71;53.61;101911.84;4893241;29;19928;-77
2021/10/01 12:17:00;;;;;;;;;;;;;;;9.72;53.98;101911.00;4871262;29;19924;-78
2021/10/01 12:19:26;;;;;;;;;;;;;;;9.71;53.72;101914.44;4877172;29;20405;-78
2021/10/01 12:22:15;;;;;;;;;;;;;;;9.69;53.98;101911.81;4876574;29;20268;-79
2021/10/01 12:24:43;;;;;;;;;;;;;;;9.69;53.85;101918.72;4876413;29;19931;-80
2021/10/01 12:27:09;;;;;;;;;;;;;;;9.78;54.21;101913.78;4878478;29;20407;-79
2021/10/01 12:29:43;;;;;;;;;;;;;;;9.86;54.02;101906.19;4877078;29;19927;-79
2021/10/01 12:32:16;;;;;;;;;;;;;;;9.98;54.20;101903.91;4871827;29;19931;-78
2021/10/01 12:34:47;;;;;;;;;;;;;;;10.14;54.06;101902.59;4857424;29;19927;-80
2021/10/01 12:37:16;;;;;;;;;;;;;;;10.26;53.52;101899.44;4859619;29;19923;-80
2021/10/01 12:39:48;;;;;;;;;;;;;;;10.33;53.67;101898.78;4879039;29;19938;-80
2021/10/01 12:42:19;;;;;;;;;;;;;;;10.38;53.53;101893.69;4892215;29;19983;-80
2021/10/01 12:44:55;;;;;;;;;;;;;;;10.42;53.45;101892.06;4899775;29;19938;-79
2021/10/01 12:47:28;;;;;;;;;;;;;;;10.43;53.44;101889.50;4894069;29;19923;-79
2021/10/01 12:50:10;;;;;;;;;;;;;;;10.41;53.11;101885.97;4890884;29;19979;-77
2021/10/01 12:52:45;;;;;;;;;;;;;;;10.40;53.70;101879.03;4876437;29;19977;-78
2021/10/01 12:55:14;;;;;;;;;;;;;;;10.41;53.19;101883.38;4873734;29;20434;-80
2021/10/01 12:57:40;;;;;;;;;;;;;;;10.43;53.34;101884.31;4877853;29;19931;-81
2021/10/01 13:00:08;;;;;;;;;;;;;;;10.46;53.15;101883.50;4878041;29;19924;-81
2021/10/01 13:02:42;;;;;;;;;;;;;;;10.47;53.34;101875.75;4878178;29;19923;-80
2021/10/01 13:05:14;;;;;;;;;;;;;;;10.50;53.16;101881.00;4877137;29;19938;-80
2021/10/01 13:07:46;;;;;;;;;;;;;;;10.49;52.84;101879.22;4876011;29;19924;-80
2021/10/01 13:10:15;;;;;;;;;;;;;;;10.36;53.03;101878.03;4891361;29;19959;-78
2021/10/01 13:12:51;;;;;;;;;;;;;;;10.14;53.37;101878.34;4878045;29;19987;-78
2021/10/01 13:15:40;;;;;;;;;;;;;;;9.92;53.79;101876.03;4877389;29;19972;-79
2021/10/01 13:18:22;;;;;;;;;;;;;;;9.70;53.50;101882.38;4874394;29;20356;-79
2021/10/01 13:21:08;;;;;;;;;;;;;;;9.51;54.23;101883.56;4894089;29;19952;-78
2021/10/01 13:23:41;;;;;;;;;;;;;;;9.37;54.38;101875.34;4878147;29;19930;-78
2021/10/01 13:26:27;;;;;;;;;;;;;;;9.30;54.24;101878.59;4891603;29;19939;-79
2021/10/01 13:29:01;;;;;;;;;;;;;;;9.31;54.60;101881.25;4892997;29;20384;-80
2021/10/01 13:31:27;;;;;;;;;;;;;;;9.25;54.42;101872.41;4882088;29;19999;-80
2021/10/01 13:33:53;;;;;;;;;;;;;;;9.22;54.58;101873.19;4886961;29;19974;-78
2021/10/01 13:36:20;;;;;;;;;;;;;;;9.21;54.89;101868.81;4884793;29;20034;-80
2021/10/01 13:38:47;;;;;;;;;;;;;;;9.17;54.44;101872.16;4877216;29;19931;-78
2021/10/01 13:41:16;;;;;;;;;;;;;;;9.09;54.61;101868.47;4875016;29;19992;-79
2021/10/01 13:43:42;;;;;;;;;;;;;;;9.12;54.98;101869.44;4860729;29;19927;-78
2021/10/01 13:46:09;;;;;;;;;;;;;;;9.14;54.60;101864.31;4891660;29;19927;-79
2021/10/01 13:48:38;;;;;;;;;;;;;;;9.11;54.79;101865.06;4889270;29;19930;-78
2021/10/01 13:51:04;;;;;;;;;;;;;;;9.06;54.83;101870.97;4863420;29;20784;-79
2021/10/01 13:53:32;;;;;;;;;;;;;;;8.97;54.61;101864.66;4884785;29;19932;-79
2021/10/01 13:56:01;;;;;;;;;;;;;;;8.95;54.84;101862.84;4875813;29;19979;-79
2021/10/01 13:58:27;;;;;;;;;;;;;;;8.92;54.89;101861.06;4874490;29;19931;-79
2021/10/01 14:00:55;;;;;;;;;;;;;;;8.85;54.96;101864.28;4873798;29;19963;-79
2021/10/01 14:03:27;;;;;;;;;;;;;;;8.81;55.18;101865.91;4853916;29;20158;-80
2021/10/01 14:05:58;;;;;;;;;;;;;;;8.80;54.89;101863.25;4859076;29;19923;-81
2021/10/01 14:08:27;;;;;;;;;;;;;;;8.78;54.80;101858.03;4876952;29;20847;-82
2021/10/01 14:10:52;;;;;;;;;;;;;;;8.77;55.09;101857.97;4890642;29;19930;-78
2021/10/01 14:13:19;;;;;;;;;;;;;;;8.77;54.97;101860.56;4876755;29;20641;-80
2021/10/01 14:15:46;;;;;;;;;;;;;;;8.75;55.21;101855.31;4877086;29;19934;-81
2021/10/01 14:18:12;;;;;;;;;;;;;;;8.68;55.17;101854.25;4876732;29;20388;-81
2021/10/01 14:20:38;;;;;;;;;;;;;;;8.63;55.21;101853.22;4890911;29;19931;-79
2021/10/01 14:23:04;;;;;;;;;;;;;;;8.66;55.39;101855.91;4875624;29;19935;-77
2021/10/01 14:25:30;;;;;;;;;;;;;;;8.73;55.47;101855.25;4878220;29;19932;-79
2021/10/01 14:28:01;;;;;;;;;;;;;;;8.81;55.40;101847.75;4874826;29;19977;-78
2021/10/01 14:30:28;;;;;;;;;;;;;;;8.84;55.48;101846.94;4883859;29;20390;-80
2021/10/01 14:32:57;;;;;;;;;;;;;;;8.85;55.29;101846.09;4874452;29;20407;-79
2021/10/01 14:35:22;;;;;;;;;;;;;;;8.79;55.21;101844.22;4887368;29;19946;-81
2021/10/01 14:37:54;;;;;;;;;;;;;;;8.75;55.31;101847.53;4887704;29;19991;-81
2021/10/01 14:40:22;;;;;;;;;;;;;;;8.72;55.31;101850.03;4876556;29;19924;-79
2021/10/01 14:42:50;;;;;;;;;;;;;;;8.66;55.38;101848.13;4874001;29;19928;-80
2021/10/01 14:45:15;;;;;;;;;;;;;;;8.59;55.43;101843.56;4875584;29;20308;-77
2021/10/01 14:47:41;;;;;;;;;;;;;;;8.63;55.61;101844.53;4888643;29;19923;-78
2021/10/01 14:50:13;;;;;;;;;;;;;;;8.62;55.91;101843.66;4911529;29;19943;-80
2021/10/01 14:52:39;;;;;;;;;;;;;;;8.61;55.48;101841.91;4894613;29;19959;-79
2021/10/01 14:55:05;;;;;;;;;;;;;;;8.59;55.48;101844.47;4893454;29;19963;-79
2021/10/01 14:57:31;;;;;;;;;;;;;;;8.50;55.72;101848.44;4876488;29;20052;-80
2021/10/01 14:59:58;;;;;;;;;;;;;;;8.40;55.84;101850.72;4887057;29;20016;-79
2021/10/01 15:02:23;;;;;;;;;;;;;;;8.38;56.19;101852.38;4877849;29;19934;-80
2021/10/01 15:04:49;;;;;;;;;;;;;;;8.41;56.00;101857.69;4880677;29;19923;-79
2021/10/01 15:07:14;;;;;;;;;;;;;;;8.45;55.79;101858.66;4886740;29;19927;-79
2021/10/01 15:09:40;;;;;;;;;;;;;;;8.46;55.81;101859.56;4875032;29;19973;-81
2021/10/01 15:12:08;;;;;;;;;;;;;;;8.46;55.59;101851.75;4878089;29;19924;-80
2021/10/01 15:14:33;;;;;;;;;;;;;;;8.44;55.92;101852.59;4892101;29;19938;-79
2021/10/01 15:17:02;;;;;;;;;;;;;;;8.40;55.84;101849.81;4865924;29;19924;-79
2021/10/01 15:19:28;;;;;;;;;;;;;;;8.33;55.97;101848.75;4877193;29;19923;-80
2021/10/01 15:21:55;;;;;;;;;;;;;;;8.30;56.09;101859.03;4878403;29;20478;-80
2021/10/01 15:24:20;;;;;;;;;;;;;;;8.25;56.18;101856.28;4887324;29;19928;-79
2021/10/01 15:26:46;;;;;;;;;;;;;;;8.19;55.93;101857.78;4897693;29;19924;-80
2021/10/01 15:29:12;;;;;;;;;;;;;;;8.14;56.37;101853.31;4877151;29;19948;-78
2021/10/01 15:31:39;;;;;;;;;;;;;;;8.13;56.46;101851.56;4873715;29;19924;-80
2021/10/01 15:34:04;;;;;;;;;;;;;;;8.11;56.29;101857.53;4874529;29;19928;-79
2021/10/01 15:36:30;;;;;;;;;;;;;;;8.11;56.40;101853.22;4874536;29;19931;-79
2021/10/01 15:38:56;;;;;;;;;;;;;;;8.11;56.42;101858.41;4874037;29;19923;-79
2021/10/01 15:41:21;;;;;;;;;;;;;;;8.13;56.76;101859.34;4889958;29;19924;-78
2021/10/01 15:43:47;;;;;;;;;;;;;;;8.12;56.80;101854.97;4874584;29;19986;-78
2021/10/01 15:46:12;;;;;;;;;;;;;;;8.11;56.90;101857.53;4874312;29;19967;-78
2021/10/01 15:48:38;;;;;;;;;;;;;;;8.12;56.83;101860.16;4875456;29;19924;-79
2021/10/01 15:51:04;;;;;;;;;;;;;;;8.11;56.90;101860.13;4901803;29;19919;-82
2021/10/01 15:53:30;;;;;;;;;;;;;;;8.09;56.91;101856.59;4890271;29;20038;-78
2021/10/01 15:55:56;;;;;;;;;;;;;;;8.05;56.92;101857.31;4901465;29;19983;-80
2021/10/01 15:58:21;;;;;;;;;;;;;;;8.03;57.14;101858.97;4877500;29;19923;-81
2021/10/01 16:00:47;;;;;;;;;;;;;;;8.00;56.99;101862.34;4883465;29;19928;-79
2021/10/01 16:03:13;;;;;;;;;;;;;;;8.00;57.44;101854.59;4874478;29;19930;-78
2021/10/01 16:05:40;;;;;;;;;;;;;;;7.96;57.23;101853.56;4870461;29;19923;-78
2021/10/01 16:08:07;;;;;;;;;;;;;;;7.89;57.14;101858.50;4858254;29;19923;-80
2021/10/01 16:10:34;;;;;;;;;;;;;;;7.83;57.51;101859.16;4890847;29;19946;-79
2021/10/01 16:12:59;;;;;;;;;;;;;;;7.82;57.61;101871.25;4873310;29;20018;-78
2021/10/01 16:15:27;;;;;;;;;;;;;;;7.76;57.64;101860.66;4871902;29;20038;-79
2021/10/01 16:17:53;;;;;;;;;;;;;;;7.71;57.77;101862.19;4870318;29;20444;-77
2021/10/01 16:20:22;;;;;;;;;;;;;;;7.73;57.84;101860.56;4889020;29;19928;-78
2021/10/01 16:22:50;;;;;;;;;;;;;;;7.75;58.22;101861.50;4856662;29;19951;-78
2021/10/01 16:25:17;;;;;;;;;;;;;;;7.78;57.96;101864.19;4872212;29;19927;-77
2021/10/01 16:27:42;;;;;;;;;;;;;;;7.81;58.02;101869.50;4874604;29;20380;-80
2021/10/01 16:30:08;;;;;;;;;;;;;;;7.87;57.84;101862.75;4876471;29;19934;-79
2021/10/01 16:32:34;;;;;;;;;;;;;;;7.84;57.95;101859.22;4880473;29;19928;-77
2021/10/01 16:35:00;;;;;;;;;;;;;;;7.83;58.00;101865.22;4873083;29;19927;-78
2021/10/01 16:37:26;;;;;;;;;;;;;;;7.84;57.86;101863.53;4871808;29;20322;-82
2021/10/01 16:39:52;;;;;;;;;;;;;;;7.78;57.82;101863.28;4872521;29;19931;-78
2021/10/01 16:42:17;;;;;;;;;;;;;;;7.74;58.11;101858.81;4872726;29;19935;-80
2021/10/01 16:44:44;;;;;;;;;;;;;;;7.44;58.05;101816.31;4887440;29;20629;-78
2021/10/01 16:47:12;;;;;;;;;;;;;;;7.66;58.46;101854.28;4876999;29;19971;-78
2021/10/01 16:49:39;;;;;;;;;;;;;;;7.68;58.32;101856.91;4873662;29;19927;-79
2021/10/01 16:52:05;;;;;;;;;;;;;;;7.67;58.35;101856.03;4894562;29;19927;-78
2021/10/01 16:54:30;;;;;;;;;;;;;;;7.66;58.35;101858.56;4910868;29;19967;-78
2021/10/01 16:56:56;;;;;;;;;;;;;;;7.68;58.67;101856.91;4898384;29;19932;-78
2021/10/01 16:59:23;;;;;;;;;;;;;;;7.63;58.41;101850.66;4910204;29;20000;-78
2021/10/01 17:01:48;;;;;;;;;;;;;;;7.58;58.47;101844.47;4878489;29;19923;-79
2021/10/01 17:04:14;;;;;;;;;;;;;;;7.52;58.51;101858.06;4876195;29;19932;-79
2021/10/01 17:06:39;;;;;;;;;;;;;;;7.51;58.50;101858.88;4878408;29;19924;-79
2021/10/01 17:09:05;;;;;;;;;;;;;;;7.53;58.60;101852.03;4876851;29;19924;-80
2021/10/01 17:11:31;;;;;;;;;;;;;;;7.50;58.66;101851.97;4859985;29;19996;-81
2021/10/01 17:13:56;;;;;;;;;;;;;;;7.50;58.82;101852.81;4871735;29;19956;-78
2021/10/01 17:16:22;;;;;;;;;;;;;;;7.53;58.98;101850.34;4869476;29;20376;-79
2021/10/01 17:18:48;;;;;;;;;;;;;;;7.52;58.86;101848.59;4876848;29;19930;-78
2021/10/01 17:21:13;;;;;;;;;;;;;;;7.54;58.89;101849.53;4875788;29;19923;-78
2021/10/01 17:23:39;;;;;;;;;;;;;;;7.56;58.83;101849.56;4875531;29;20030;-80
2021/10/01 17:26:05;;;;;;;;;;;;;;;7.50;59.18;101839.00;4876338;29;19934;-79
2021/10/01 17:28:31;;;;;;;;;;;;;;;7.53;58.87;101842.59;4891759;29;19951;-78
2021/10/01 17:30:58;;;;;;;;;;;;;;;7.27;58.74;101801.88;4890736;29;20391;-80
2021/10/01 17:33:24;;;;;;;;;;;;;;;7.49;58.96;101845.88;4890993;29;19931;-77
2021/10/01 17:35:50;;;;;;;;;;;;;;;7.47;59.19;101844.06;4891423;29;20304;-79
2021/10/01 17:38:17;;;;;;;;;;;;;;;7.46;59.11;101847.50;4893267;29;20030;-78
2021/10/01 17:40:43;;;;;;;;;;;;;;;7.48;59.11;101838.94;4875562;29;19967;-78
2021/10/01 17:43:09;;;;;;;;;;;;;;;7.52;58.99;101846.00;4876720;29;19924;-80
2021/10/01 17:45:37;;;;;;;;;;;;;;;7.54;58.96;101843.44;4877508;29;20276;-80
2021/10/01 17:48:02;;;;;;;;;;;;;;;7.57;59.03;101846.16;4872271;29;19924;-78
2021/10/01 17:50:29;;;;;;;;;;;;;;;7.62;59.00;101841.13;4860356;29;19966;-79
2021/10/01 17:52:55;;;;;;;;;;;;;;;7.62;58.82;101847.22;4877117;29;20467;-79
2021/10/01 17:55:20;;;;;;;;;;;;;;;7.64;58.86;101845.56;4892337;29;19986;-81
2021/10/01 17:57:46;;;;;;;;;;;;;;;7.67;58.99;101847.38;4888636;29;19924;-78
2021/10/01 18:00:12;;;;;;;;;;;;;;;7.69;59.04;101848.31;4877519;29;20392;-80
2021/10/01 18:02:38;;;;;;;;;;;;;;;7.72;59.03;101847.56;4875615;29;20022;-79
2021/10/01 18:05:04;;;;;;;;;;;;;;;7.74;58.96;101846.78;4877979;29;20584;-78
2021/10/01 18:07:32;;;;;;;;;;;;;;;7.77;58.94;101835.63;4876821;29;19935;-81
2021/10/01 18:09:58;;;;;;;;;;;;;;;7.79;59.28;101834.84;4875922;29;19934;-78
2021/10/01 18:12:23;;;;;;;;;;;;;;;7.78;58.99;101837.38;4885029;29;19972;-79
2021/10/01 18:14:49;;;;;;;;;;;;;;;7.77;58.96;101839.09;4876198;29;19927;-77
2021/10/01 18:17:15;;;;;;;;;;;;;;;7.74;58.99;101839.00;4871954;29;19998;-81
2021/10/01 18:19:40;;;;;;;;;;;;;;;7.76;58.93;101834.75;4887969;29;19951;-80
2021/10/01 18:22:08;;;;;;;;;;;;;;;7.74;59.06;101841.59;4874866;29;20562;-81
2021/10/01 18:24:33;;;;;;;;;;;;;;;7.71;59.19;101849.25;4858607;29;20532;-78
2021/10/01 18:26:59;;;;;;;;;;;;;;;7.68;59.27;101842.25;4871018;29;19924;-78
2021/10/01 18:29:24;;;;;;;;;;;;;;;7.66;59.47;101843.00;4891266;29;20659;-79
2021/10/01 18:31:50;;;;;;;;;;;;;;;7.63;59.19;101843.78;4882677;29;19919;-77
2021/10/01 18:34:16;;;;;;;;;;;;;;;7.62;59.59;101848.91;4874002;29;19966;-78
2021/10/01 18:36:41;;;;;;;;;;;;;;;7.61;59.74;101842.00;4874542;29;20380;-80
2021/10/01 18:39:07;;;;;;;;;;;;;;;7.60;59.75;101853.19;4885280;29;19931;-78
2021/10/01 18:41:35;;;;;;;;;;;;;;;7.54;59.81;101844.34;4892573;29;19979;-79
2021/10/01 18:44:02;;;;;;;;;;;;;;;7.50;59.76;101846.78;4877965;29;19924;-78
2021/10/01 18:46:27;;;;;;;;;;;;;;;7.44;60.06;101847.41;4876823;29;20078;-81
2021/10/01 18:48:53;;;;;;;;;;;;;;;7.44;60.05;101850.00;4873502;29;20025;-77
2021/10/01 18:51:19;;;;;;;;;;;;;;;7.44;59.93;101846.53;4876966;29;19924;-78
2021/10/01 18:53:45;;;;;;;;;;;;;;;7.44;59.98;101851.72;4876046;29;19931;-79
2021/10/01 18:56:13;;;;;;;;;;;;;;;7.44;60.14;101852.59;4871643;29;19931;-77
2021/10/01 18:58:51;;;;;;;;;;;;;;;7.43;60.14;101852.56;4863500;29;20356;-80
2021/10/01 19:01:19;;;;;;;;;;;;;;;7.41;59.89;101847.28;4889449;29;19924;-80
2021/10/01 19:03:56;;;;;;;;;;;;;;;7.39;60.26;101848.97;4885446;29;19927;-81
2021/10/01 19:06:23;;;;;;;;;;;;;;;7.33;60.25;101849.59;4883298;29;19931;-78
2021/10/01 19:08:48;;;;;;;;;;;;;;;7.24;59.99;101844.97;4876034;29;19927;-79
2021/10/01 19:11:14;;;;;;;;;;;;;;;7.20;60.36;101849.97;4885694;29;19973;-79
2021/10/01 19:13:41;;;;;;;;;;;;;;;7.20;60.39;101844.81;4890058;29;20030;-81
2021/10/01 19:16:07;;;;;;;;;;;;;;;7.21;60.52;101843.97;4857825;29;20307;-77
2021/10/01 19:18:33;;;;;;;;;;;;;;;7.19;60.58;101845.63;4875721;29;19924;-78
2021/10/01 19:21:04;;;;;;;;;;;;;;;7.18;60.43;101849.03;4871894;29;20447;-79